Weather at Lawrence J Timmerman Airport

Public forecast

Using degrees Fahrenheit for public forecast. Weather courtesy of forecast.io.

Current aviation weather report (METAR) for Lawrence J Timmerman Airport

Retrieved 2021/06/13 15:45 UTC (29 minutes ago):

KMWC 131545Z 36006KT 310V040 10SM CLR 27/06 A3002

Closest aviation forecast (TAF) to Lawrence J Timmerman Airport

Closest forecast is Waukesha County Airport, 9.8 nm (18.2 km) WSW. Retrieved 2021/06/13 12:22 UTC (4 hours ago):

TAF KUES 131120Z 1312/1412 33003KT P6SM SKC FM131600 33007KT P6SM SKC FM140200 22003KT P6SM FEW150 FM140800 03007KT P6SM SCT180